Time;durP1;ratioP1;P1;durP2;ratioP2;P2;SDS_P1;SDS_P2;PMS_P1;PMS_P2;Temp;Humidity;BMP_temperature;BMP_pressure;BME280_temperature;BME280_humidity;BME280_pressure;Samples;Min_cycle;Max_cycle;Signal;HPM_P1;HPM_P2
2024/04/16 00:00:37;;;;;;;0.50;0.30;;;5.30;99.90;;;;;;5429635;26;20449;-81
2024/04/16 00:03:03;;;;;;;0.80;0.20;;;5.60;99.90;;;;;;5417126;26;20436;-81
2024/04/16 00:05:29;;;;;;;0.60;0.30;;;5.40;99.90;;;;;;5419385;26;20796;-81
2024/04/16 00:07:55;;;;;;;1.27;0.40;;;5.20;99.90;;;;;;5425002;26;20322;-81
2024/04/16 00:10:21;;;;;;;0.40;0.20;;;5.90;99.90;;;;;;5420629;26;20871;-81
2024/04/16 00:12:47;;;;;;;1.00;0.30;;;5.40;99.90;;;;;;5414597;26;20327;-81
2024/04/16 00:15:13;;;;;;;0.43;0.30;;;4.90;99.90;;;;;;5419562;26;20877;-81
2024/04/16 00:17:39;;;;;;;0.70;0.30;;;5.30;99.90;;;;;;5450268;26;20344;-81
2024/04/16 00:20:06;;;;;;;0.50;0.40;;;5.20;99.90;;;;;;5446824;26;20336;-81
2024/04/16 00:22:32;;;;;;;0.50;0.35;;;5.10;99.90;;;;;;5442630;26;20909;-81
2024/04/16 00:24:58;;;;;;;0.80;0.60;;;5.00;99.90;;;;;;5436709;26;20328;-82
2024/04/16 00:27:23;;;;;;;0.53;0.30;;;5.10;99.90;;;;;;5451562;26;20321;-81
2024/04/16 00:29:49;;;;;;;2.00;0.40;;;5.00;99.90;;;;;;5450777;26;20336;-81
2024/04/16 00:32:15;;;;;;;0.70;0.40;;;5.30;99.90;;;;;;5412508;26;20845;-81
2024/04/16 00:34:40;;;;;;;0.60;0.30;;;5.20;99.90;;;;;;5410898;26;20336;-81
2024/04/16 00:37:06;;;;;;;0.40;0.30;;;5.00;99.90;;;;;;5419699;26;20340;-81
2024/04/16 00:39:31;;;;;;;0.40;0.30;;;4.90;99.90;;;;;;5420520;26;20321;-81
2024/04/16 00:41:57;;;;;;;0.70;0.50;;;5.30;99.90;;;;;;5452555;26;20369;-81
2024/04/16 00:44:23;;;;;;;1.35;0.60;;;5.40;99.90;;;;;;5419176;26;20382;-82
2024/04/16 00:46:50;;;;;;;1.90;0.50;;;5.80;99.90;;;;;;5449468;26;20340;-81
2024/04/16 00:49:16;;;;;;;1.70;0.60;;;5.80;99.90;;;;;;5457654;26;20868;-80
2024/04/16 00:51:42;;;;;;;2.80;0.60;;;6.10;99.90;;;;;;5414332;26;20359;-81
2024/04/16 00:54:08;;;;;;;1.25;0.63;;;6.50;99.90;;;;;;5451070;26;20432;-82
2024/04/16 00:56:39;;;;;;;1.25;0.70;;;6.20;99.90;;;;;;5423981;26;20443;-81
2024/04/16 00:59:06;;;;;;;3.00;0.90;;;5.80;99.90;;;;;;5412100;26;21095;-80
2024/04/16 01:01:32;;;;;;;1.60;0.60;;;5.90;99.90;;;;;;5444030;26;20427;-80
2024/04/16 01:03:58;;;;;;;2.90;0.70;;;5.70;99.90;;;;;;5434447;26;20328;-80
2024/04/16 01:06:24;;;;;;;4.30;0.80;;;5.80;99.90;;;;;;5448937;26;20329;-81
2024/04/16 01:08:49;;;;;;;2.88;0.77;;;5.70;99.90;;;;;;5449900;26;20378;-80
2024/04/16 01:11:28;;;;;;;3.00;0.70;;;6.10;99.90;;;;;;5412077;26;20337;-80
2024/04/16 01:13:57;;;;;;;3.33;0.75;;;5.90;99.90;;;;;;5455368;26;20334;-81
2024/04/16 01:16:22;;;;;;;2.05;0.85;;;5.90;99.90;;;;;;5458445;26;20329;-80
2024/04/16 01:18:48;;;;;;;3.00;0.87;;;6.20;99.90;;;;;;5448155;26;20942;-81
2024/04/16 01:21:14;;;;;;;2.50;1.00;;;6.30;99.90;;;;;;5418266;26;20419;-80
2024/04/16 01:23:40;;;;;;;2.30;1.00;;;6.10;99.90;;;;;;5416171;26;20688;-81
2024/04/16 01:26:06;;;;;;;2.95;0.85;;;6.20;99.90;;;;;;5415729;26;20372;-80
2024/04/16 01:28:31;;;;;;;2.05;0.85;;;6.00;99.90;;;;;;5396595;26;20335;-81
2024/04/16 01:30:57;;;;;;;3.72;1.00;;;6.60;99.90;;;;;;5448878;26;20957;-81
2024/04/16 01:33:22;;;;;;;1.77;0.80;;;6.30;99.90;;;;;;5448884;26;20337;-81
2024/04/16 01:35:48;;;;;;;2.93;0.70;;;6.00;99.90;;;;;;5448881;26;20434;-80
2024/04/16 01:38:13;;;;;;;2.73;0.70;;;6.00;99.90;;;;;;5415809;26;20356;-81
2024/04/16 01:40:39;;;;;;;2.27;0.70;;;6.20;99.90;;;;;;5448904;26;20676;-80
2024/04/16 01:43:04;;;;;;;1.17;0.55;;;6.00;99.90;;;;;;5411862;26;20378;-80
2024/04/16 01:45:30;;;;;;;2.00;0.68;;;6.30;99.90;;;;;;5446047;26;20328;-80
2024/04/16 01:47:56;;;;;;;1.40;0.60;;;6.10;99.90;;;;;;5447938;26;20333;-80
2024/04/16 01:50:21;;;;;;;2.00;0.75;;;5.90;99.90;;;;;;5405629;26;20343;-80
2024/04/16 01:52:47;;;;;;;1.98;0.60;;;6.40;99.90;;;;;;5415146;26;20373;-80
2024/04/16 01:55:13;;;;;;;1.70;0.60;;;6.00;99.90;;;;;;5462307;26;20324;-80
2024/04/16 01:57:39;;;;;;;1.15;0.63;;;6.10;99.90;;;;;;5451568;26;20411;-80
2024/04/16 02:00:06;;;;;;;2.38;1.10;;;6.00;99.90;;;;;;5450873;26;20357;-80
2024/04/16 02:02:34;;;;;;;1.40;0.53;;;6.00;99.90;;;;;;5408179;26;20372;-81
2024/04/16 02:05:00;;;;;;;1.20;0.80;;;5.80;99.90;;;;;;5437277;26;20436;-80
2024/04/16 02:07:26;;;;;;;1.70;0.70;;;5.90;99.90;;;;;;5451620;26;20832;-81
2024/04/16 02:09:52;;;;;;;2.47;0.80;;;6.30;99.90;;;;;;5439853;26;20384;-80
2024/04/16 02:12:17;;;;;;;2.40;0.90;;;6.10;99.90;;;;;;5452032;26;20423;-80
2024/04/16 02:14:43;;;;;;;2.70;1.10;;;6.10;99.90;;;;;;5416600;26;20376;-81
2024/04/16 02:17:08;;;;;;;0.87;0.57;;;6.10;99.90;;;;;;5449619;26;20456;-80
2024/04/16 02:19:34;;;;;;;3.00;1.00;;;5.90;99.90;;;;;;5445642;26;20317;-80
2024/04/16 02:21:59;;;;;;;1.40;0.70;;;6.40;99.90;;;;;;5424633;26;20325;-81
2024/04/16 02:24:25;;;;;;;4.70;1.20;;;6.10;99.90;;;;;;5456808;26;20823;-82
2024/04/16 02:26:51;;;;;;;3.45;1.00;;;6.00;99.90;;;;;;5421343;26;20331;-81
2024/04/16 02:29:16;;;;;;;2.28;0.80;;;6.40;99.90;;;;;;5451193;26;20364;-80
2024/04/16 02:31:42;;;;;;;1.40;0.80;;;6.20;99.90;;;;;;5436472;26;20395;-81
2024/04/16 02:34:07;;;;;;;1.83;1.20;;;6.40;99.90;;;;;;5450128;26;20317;-81
2024/04/16 02:36:35;;;;;;;1.50;0.90;;;6.30;99.90;;;;;;5426498;21;20367;-85
2024/04/16 02:39:01;;;;;;;4.33;1.07;;;6.30;99.90;;;;;;5403608;26;20862;-84
2024/04/16 02:41:26;;;;;;;2.10;0.90;;;6.80;99.90;;;;;;5386391;26;20352;-82
2024/04/16 02:43:52;;;;;;;3.37;0.97;;;6.20;99.90;;;;;;5385760;26;20882;-82
2024/04/16 02:46:18;;;;;;;1.90;1.00;;;6.40;99.90;;;;;;5417200;26;20711;-82
2024/04/16 02:48:43;;;;;;;1.50;0.83;;;6.30;99.90;;;;;;5406317;26;20405;-82
2024/04/16 02:51:13;;;;;;;3.70;1.00;;;6.30;99.90;;;;;;5414323;26;20331;-82
2024/04/16 02:53:39;;;;;;;3.97;1.40;;;6.20;99.90;;;;;;5380823;26;20335;-83
2024/04/16 02:56:05;;;;;;;4.27;1.27;;;5.50;99.90;;;;;;5402203;26;20834;-81
2024/04/16 02:58:31;;;;;;;1.58;0.82;;;6.50;99.90;;;;;;5407344;26;20713;-82
2024/04/16 03:00:56;;;;;;;4.03;1.20;;;6.40;99.90;;;;;;5396074;26;20330;-82
2024/04/16 03:03:22;;;;;;;1.30;0.93;;;6.50;99.90;;;;;;5407657;26;20405;-82
2024/04/16 03:05:57;;;;;;;4.10;1.00;;;6.70;99.90;;;;;;5402511;26;20370;-83
2024/04/16 03:08:23;;;;;;;2.50;1.20;;;6.60;99.90;;;;;;5378028;26;20436;-83
2024/04/16 03:10:48;;;;;;;3.83;1.20;;;6.20;99.90;;;;;;5414662;26;20341;-81
2024/04/16 03:13:14;;;;;;;2.95;1.05;;;6.70;99.90;;;;;;5416810;26;20664;-83
2024/04/16 03:15:39;;;;;;;3.00;1.50;;;6.60;99.90;;;;;;5385537;26;20331;-82
2024/04/16 03:18:05;;;;;;;2.20;1.00;;;7.50;99.90;;;;;;5414594;26;20834;-80
2024/04/16 03:20:31;;;;;;;1.95;1.02;;;7.60;99.90;;;;;;5381968;26;20345;-83
2024/04/16 03:22:56;;;;;;;4.15;1.08;;;6.10;99.90;;;;;;5396041;26;20323;-83
2024/04/16 03:25:23;;;;;;;2.33;1.05;;;6.70;99.90;;;;;;5399007;26;20334;-81
2024/04/16 03:27:52;;;;;;;1.48;1.00;;;6.50;99.90;;;;;;5368151;26;20334;-82
2024/04/16 03:30:18;;;;;;;3.53;1.20;;;5.70;99.90;;;;;;5362327;26;20332;-82
2024/04/16 03:32:43;;;;;;;3.38;1.20;;;7.30;99.90;;;;;;5384865;26;20331;-81
2024/04/16 03:35:09;;;;;;;5.40;1.60;;;6.70;99.90;;;;;;5385779;26;20945;-81
2024/04/16 03:37:35;;;;;;;5.07;1.50;;;6.60;99.90;;;;;;5415601;26;20887;-81
2024/04/16 03:40:01;;;;;;;3.33;1.17;;;6.50;99.90;;;;;;5377038;26;20368;-82
2024/04/16 03:42:26;;;;;;;6.03;1.60;;;6.60;99.90;;;;;;5377534;26;20322;-83
2024/04/16 03:44:55;;;;;;;2.83;1.00;;;6.10;99.90;;;;;;5382463;26;20367;-81
2024/04/16 03:47:21;;;;;;;5.10;1.30;;;6.40;99.90;;;;;;5408120;26;20376;-81
2024/04/16 03:49:47;;;;;;;4.00;1.17;;;6.20;99.90;;;;;;5417204;26;20376;-84
2024/04/16 03:52:13;;;;;;;3.10;1.10;;;6.40;99.90;;;;;;5418051;26;20676;-82
2024/04/16 03:54:38;;;;;;;3.30;1.10;;;7.80;99.90;;;;;;5416047;26;20349;-81
2024/04/16 03:57:04;;;;;;;2.50;0.83;;;7.00;99.90;;;;;;5403796;26;20360;-80
2024/04/16 04:01:00;;;;;;;2.30;0.90;;;6.50;99.90;;;;;;5418886;26;20327;-81
2024/04/16 04:02:25;;;;;;;2.42;0.80;;;7.30;99.90;;;;;;5396527;26;20475;-82
2024/04/16 04:04:51;;;;;;;3.50;1.10;;;6.40;99.90;;;;;;5425936;26;20381;-81
2024/04/16 04:07:17;;;;;;;3.30;1.58;;;6.20;99.90;;;;;;5377405;26;20878;-82
2024/04/16 04:09:43;;;;;;;2.42;0.90;;;6.50;99.90;;;;;;5385070;26;20335;-83
2024/04/16 04:12:08;;;;;;;3.80;1.50;;;6.70;99.90;;;;;;5415772;26;20487;-82
2024/04/16 04:14:34;;;;;;;6.00;1.35;;;9.00;99.90;;;;;;5415863;26;20367;-82
2024/04/16 04:16:59;;;;;;;3.50;1.30;;;6.30;99.90;;;;;;5405288;26;20319;-81
2024/04/16 04:19:25;;;;;;;5.73;1.63;;;6.30;99.90;;;;;;5384168;26;20335;-83
2024/04/16 04:21:50;;;;;;;2.40;1.10;;;6.40;99.90;;;;;;5415737;26;20352;-82
2024/04/16 04:24:17;;;;;;;2.13;1.00;;;6.50;99.90;;;;;;5414060;26;20490;-82
2024/04/16 04:26:43;;;;;;;1.38;0.90;;;6.60;99.90;;;;;;5373314;26;20353;-81
2024/04/16 04:29:09;;;;;;;2.95;1.00;;;7.10;99.90;;;;;;5408253;26;20953;-81
2024/04/16 04:31:34;;;;;;;2.30;1.20;;;6.70;99.90;;;;;;5410230;26;20347;-83
2024/04/16 04:34:00;;;;;;;3.37;0.97;;;6.70;99.90;;;;;;5368057;26;20346;-82
2024/04/16 04:36:26;;;;;;;1.80;0.60;;;6.70;99.90;;;;;;5402598;26;20866;-84
2024/04/16 04:38:53;;;;;;;3.60;0.80;;;6.60;99.90;;;;;;5382850;26;20830;-81
2024/04/16 04:41:18;;;;;;;2.55;0.90;;;7.30;99.90;;;;;;5415731;26;20333;-81
2024/04/16 04:43:44;;;;;;;2.05;0.90;;;6.80;99.90;;;;;;5414736;26;20854;-81
2024/04/16 04:46:10;;;;;;;1.17;0.77;;;7.10;99.90;;;;;;5384758;26;20360;-81
2024/04/16 04:48:36;;;;;;;2.47;0.80;;;6.80;99.90;;;;;;5408962;26;20440;-82
2024/04/16 04:51:02;;;;;;;3.65;1.08;;;6.60;99.90;;;;;;5361295;26;20665;-82
2024/04/16 04:53:27;;;;;;;3.50;1.30;;;7.00;99.90;;;;;;5415459;26;20346;-82
2024/04/16 04:55:53;;;;;;;2.10;0.90;;;;;;;;;;5370518;26;20348;-82
2024/04/16 04:58:19;;;;;;;5.05;1.30;;;6.70;99.90;;;;;;5404642;26;20374;-81
2024/04/16 05:00:44;;;;;;;2.30;1.10;;;7.90;99.90;;;;;;5413894;26;20332;-84
2024/04/16 05:03:10;;;;;;;1.97;0.83;;;6.80;99.90;;;;;;5371626;26;20322;-82
2024/04/16 05:05:35;;;;;;;2.00;0.90;;;6.80;99.90;;;;;;5400936;26;20431;-83
2024/04/16 05:08:01;;;;;;;4.43;1.23;;;6.90;99.90;;;;;;5367772;26;20322;-81
2024/04/16 05:10:26;;;;;;;3.80;1.20;;;6.80;99.90;;;;;;5380864;26;20324;-82
2024/04/16 05:12:55;;;;;;;3.93;1.33;;;6.70;99.90;;;;;;5417307;26;20332;-80
2024/04/16 05:15:20;;;;;;;3.58;0.95;;;7.30;99.90;;;;;;5388736;26;20346;-83
2024/04/16 05:17:47;;;;;;;4.55;1.13;;;7.20;99.90;;;;;;5351204;26;20334;-82
2024/04/16 05:20:13;;;;;;;3.20;1.30;;;7.20;99.90;;;;;;5406258;26;20339;-82
2024/04/16 05:22:39;;;;;;;5.97;1.80;;;8.80;99.90;;;;;;5420707;26;20319;-83
2024/04/16 05:25:05;;;;;;;5.00;1.48;;;5.10;99.90;;;;;;5373483;26;20375;-84
2024/04/16 05:27:31;;;;;;;2.70;1.20;;;7.10;99.90;;;;;;5383352;26;20386;-82
2024/04/16 05:29:57;;;;;;;4.10;1.30;;;;;;;;;;5383246;26;20328;-83
2024/04/16 05:32:22;;;;;;;4.82;1.30;;;7.00;99.90;;;;;;5415343;26;20323;-82
2024/04/16 05:34:48;;;;;;;2.80;1.20;;;7.70;99.90;;;;;;5383590;26;20408;-81
2024/04/16 05:37:14;;;;;;;4.10;1.10;;;7.00;99.90;;;;;;5400196;26;20414;-83
2024/04/16 05:39:40;;;;;;;4.22;1.58;;;6.90;99.90;;;;;;5384088;26;20439;-82
2024/04/16 05:42:06;;;;;;;2.80;1.23;;;7.30;99.90;;;;;;5358915;26;20327;-83
2024/04/16 05:44:31;;;;;;;2.42;1.52;;;8.80;99.90;;;;;;5386501;26;20767;-83
2024/04/16 05:46:57;;;;;;;4.20;1.30;;;7.20;99.90;;;;;;5417564;26;20350;-82
2024/04/16 05:49:23;;;;;;;2.88;1.27;;;7.30;99.90;;;;;;5418307;26;20316;-84
2024/04/16 05:51:48;;;;;;;6.32;1.80;;;6.90;99.90;;;;;;5373279;26;20879;-82
2024/04/16 05:54:14;;;;;;;4.53;1.30;;;7.00;99.90;;;;;;5412595;26;20425;-83
2024/04/16 05:56:39;;;;;;;4.43;1.50;;;6.80;99.90;;;;;;5380335;26;20339;-82
2024/04/16 05:59:08;;;;;;;4.80;1.50;;;7.20;99.90;;;;;;5408082;26;20898;-84
2024/04/16 06:01:33;;;;;;;5.40;1.75;;;7.10;99.90;;;;;;5418313;26;20328;-83
2024/04/16 06:04:01;;;;;;;4.15;1.55;;;6.60;99.90;;;;;;5417707;26;20375;-80
2024/04/16 06:06:26;;;;;;;4.07;1.58;;;7.10;99.90;;;;;;5423204;26;20340;-82
2024/04/16 06:08:52;;;;;;;4.03;1.60;;;6.90;99.90;;;;;;5387201;26;20430;-82
2024/04/16 06:11:17;;;;;;;6.17;1.93;;;7.00;99.90;;;;;;5408134;26;20842;-85
2024/04/16 06:13:43;;;;;;;6.20;1.90;;;7.10;99.90;;;;;;5418153;26;20362;-83
2024/04/16 06:16:08;;;;;;;8.03;2.37;;;7.10;99.90;;;;;;5377477;26;20324;-82
2024/04/16 06:18:34;;;;;;;5.85;1.38;;;6.30;99.90;;;;;;5372547;26;20332;-84
2024/04/16 06:20:59;;;;;;;5.75;1.65;;;6.60;99.90;;;;;;5381893;26;20334;-85
2024/04/16 06:23:26;;;;;;;3.33;1.50;;;6.90;99.90;;;;;;5376285;26;20347;-82
2024/04/16 06:25:52;;;;;;;7.93;2.35;;;;;;;;;;5386393;26;20719;-84
2024/04/16 06:28:18;;;;;;;6.45;1.90;;;7.20;99.90;;;;;;5387655;26;20327;-82
2024/04/16 06:30:44;;;;;;;5.87;1.87;;;6.80;99.90;;;;;;5385092;26;20343;-83
2024/04/16 06:33:09;;;;;;;5.67;1.60;;;6.70;99.90;;;;;;5394403;26;20412;-83
2024/04/16 06:35:35;;;;;;;4.43;1.40;;;7.20;99.90;;;;;;5359425;26;20842;-84
2024/04/16 06:38:01;;;;;;;3.80;1.50;;;7.00;99.90;;;;;;5416225;26;20331;-82
2024/04/16 06:40:27;;;;;;;5.80;2.90;;;6.90;99.90;;;;;;5395603;26;20375;-82
2024/04/16 06:42:54;;;;;;;5.22;1.60;;;7.10;99.90;;;;;;5400925;26;20324;-82
2024/04/16 06:45:20;;;;;;;4.35;1.50;;;7.00;99.90;;;;;;5394790;26;20334;-81
2024/04/16 06:47:46;;;;;;;5.13;1.55;;;7.20;99.90;;;;;;5392700;26;20324;-82
2024/04/16 06:50:11;;;;;;;4.20;1.88;;;6.80;99.90;;;;;;5360100;26;20338;-81
2024/04/16 06:52:37;;;;;;;5.20;1.63;;;7.10;99.90;;;;;;5406174;26;20458;-84
2024/04/16 06:55:02;;;;;;;5.77;2.53;;;7.20;99.90;;;;;;5375979;26;20702;-83
2024/04/16 06:57:28;;;;;;;5.30;1.83;;;7.20;99.90;;;;;;5386697;26;20324;-83
2024/04/16 06:59:54;;;;;;;4.43;1.43;;;6.90;99.90;;;;;;5360052;26;20337;-82
2024/04/16 07:02:19;;;;;;;6.03;1.90;;;7.20;99.90;;;;;;5366049;26;20326;-84
2024/04/16 07:04:45;;;;;;;5.43;1.53;;;7.50;99.90;;;;;;5343763;26;20334;-84
2024/04/16 07:07:10;;;;;;;7.27;2.20;;;7.20;99.90;;;;;;5382732;26;20547;-85
2024/04/16 07:09:36;;;;;;;4.10;1.58;;;7.50;99.90;;;;;;5383286;26;20346;-83
2024/04/16 07:12:01;;;;;;;5.00;1.80;;;7.40;99.90;;;;;;5384224;26;20735;-82
2024/04/16 07:14:27;;;;;;;4.53;1.33;;;7.50;99.90;;;;;;5381692;26;20898;-84
2024/04/16 07:16:53;;;;;;;9.23;2.40;;;7.40;99.90;;;;;;5382749;26;20382;-83
2024/04/16 07:19:18;;;;;;;5.13;1.60;;;7.20;99.90;;;;;;5379557;26;20326;-83
2024/04/16 07:21:44;;;;;;;4.53;1.70;;;7.40;99.90;;;;;;5381140;26;20342;-83
2024/04/16 07:24:09;;;;;;;5.40;1.70;;;7.80;99.90;;;;;;5352101;26;20350;-84
2024/04/16 07:26:35;;;;;;;4.90;1.90;;;7.40;99.90;;;;;;5352133;26;20344;-82
2024/04/16 07:29:01;;;;;;;5.60;1.25;;;7.80;99.90;;;;;;5353352;26;20341;-82
2024/04/16 07:31:27;;;;;;;3.75;1.80;;;7.20;99.90;;;;;;5380085;26;20326;-83
2024/04/16 07:33:52;;;;;;;3.28;1.60;;;7.30;99.90;;;;;;5350051;26;20944;-81
2024/04/16 07:36:18;;;;;;;4.97;2.10;;;7.50;99.90;;;;;;5383280;26;20360;-82
2024/04/16 07:38:43;;;;;;;3.97;1.20;;;7.50;99.90;;;;;;5383792;26;20338;-81
2024/04/16 07:41:09;;;;;;;8.10;2.00;;;7.40;99.90;;;;;;5350941;26;20351;-82
2024/04/16 07:43:35;;;;;;;6.80;2.10;;;7.50;99.90;;;;;;5381355;26;20743;-82
2024/04/16 07:46:00;;;;;;;4.65;1.50;;;7.50;99.90;;;;;;5351930;26;20446;-82
2024/04/16 07:48:26;;;;;;;5.95;1.75;;;7.70;99.90;;;;;;5381898;26;20334;-81
2024/04/16 07:50:51;;;;;;;4.23;1.60;;;6.60;99.90;;;;;;5382506;26;20345;-81
2024/04/16 07:53:17;;;;;;;4.53;1.70;;;;;;;;;;5351357;26;20330;-82
2024/04/16 07:55:43;;;;;;;5.00;1.33;;;8.50;99.90;;;;;;5352774;26;20425;-83
2024/04/16 07:58:09;;;;;;;5.32;1.77;;;7.90;99.90;;;;;;5352456;26;20828;-82
2024/04/16 08:00:34;;;;;;;4.68;1.60;;;9.60;99.90;;;;;;5353640;26;20394;-81
2024/04/16 08:03:00;;;;;;;5.43;1.90;;;7.80;99.90;;;;;;5383072;26;20366;-81
2024/04/16 08:05:25;;;;;;;4.03;1.57;;;7.80;99.90;;;;;;5383219;26;20322;-82
2024/04/16 08:07:51;;;;;;;6.00;1.20;;;7.40;99.90;;;;;;5352130;26;20374;-83
2024/04/16 08:10:17;;;;;;;4.80;1.20;;;7.80;99.90;;;;;;5353573;26;20409;-82
2024/04/16 08:12:42;;;;;;;4.07;1.47;;;8.40;99.90;;;;;;5352324;26;20338;-81
2024/04/16 08:15:08;;;;;;;3.77;1.10;;;8.20;99.90;;;;;;5393358;26;20428;-82
2024/04/16 08:17:34;;;;;;;4.63;1.30;;;9.50;99.90;;;;;;5375773;26;20362;-83
2024/04/16 08:19:59;;;;;;;6.33;1.50;;;8.20;99.90;;;;;;5378972;26;20347;-80
2024/04/16 08:22:26;;;;;;;4.53;1.10;;;;;;;;;;5376925;26;20395;-80
2024/04/16 08:24:51;;;;;;;3.25;1.20;;;8.80;99.90;;;;;;5367879;26;20387;-81
2024/04/16 08:27:21;;;;;;;5.43;1.17;;;8.30;99.90;;;;;;5391543;26;20350;-81
2024/04/16 08:29:46;;;;;;;3.65;1.00;;;8.30;99.90;;;;;;5353674;26;20381;-81
2024/04/16 08:32:12;;;;;;;3.20;1.30;;;8.30;99.90;;;;;;5354171;26;20370;-81
2024/04/16 08:34:39;;;;;;;5.23;1.60;;;8.30;99.90;;;;;;5350750;26;20378;-82
2024/04/16 08:37:04;;;;;;;4.82;1.40;;;8.50;99.90;;;;;;5401092;21;20365;-79
2024/04/16 08:39:30;;;;;;;3.20;0.90;;;8.90;99.90;;;;;;5390181;26;20366;-79
2024/04/16 08:41:59;;;;;;;2.87;1.20;;;8.70;99.90;;;;;;5390431;26;20342;-80
2024/04/16 08:44:26;;;;;;;4.20;1.50;;;8.50;99.90;;;;;;5326636;26;20337;-79
2024/04/16 08:46:57;;;;;;;4.72;1.25;;;9.30;99.90;;;;;;5315705;26;20379;-80
2024/04/16 08:49:24;;;;;;;4.35;1.30;;;8.70;99.90;;;;;;5282182;27;20476;-79
2024/04/16 08:51:54;;;;;;;3.22;1.50;;;9.00;99.90;;;;;;5312155;26;20366;-81
2024/04/16 08:54:21;;;;;;;4.22;1.50;;;8.60;99.90;;;;;;5310370;26;20331;-80
2024/04/16 08:56:48;;;;;;;2.60;0.90;;;9.00;99.90;;;;;;5313437;26;20360;-81
2024/04/16 08:59:14;;;;;;;5.10;1.73;;;9.00;99.90;;;;;;5298521;27;20335;-80
2024/04/16 09:01:40;;;;;;;4.90;1.43;;;8.50;99.90;;;;;;5344467;26;20356;-81
2024/04/16 09:04:07;;;;;;;5.45;1.77;;;9.60;99.90;;;;;;5316828;26;20352;-80
2024/04/16 09:06:32;;;;;;;3.08;1.48;;;9.30;99.90;;;;;;5345875;26;20443;-80
2024/04/16 09:09:00;;;;;;;4.25;1.50;;;8.90;99.90;;;;;;5315241;26;20345;-80
2024/04/16 09:11:26;;;;;;;4.18;1.42;;;8.70;99.90;;;;;;5345510;26;20381;-80
2024/04/16 09:13:51;;;;;;;6.90;1.90;;;9.30;99.90;;;;;;5327904;26;20387;-79
2024/04/16 09:16:19;;;;;;;6.53;1.67;;;9.80;99.90;;;;;;5280817;26;20343;-80
2024/04/16 09:18:46;;;;;;;5.45;1.83;;;10.10;99.90;;;;;;5310047;26;20722;-80
2024/04/16 09:21:11;;;;;;;6.13;2.08;;;9.80;99.90;;;;;;5279878;27;20332;-79
2024/04/16 09:23:37;;;;;;;4.97;1.20;;;9.40;99.90;;;;;;5295059;26;20377;-80
2024/04/16 09:26:11;;;;;;;4.40;1.20;;;9.60;99.90;;;;;;5314054;26;20418;-80
2024/04/16 09:28:36;;;;;;;3.13;1.00;;;9.70;99.90;;;;;;5307591;26;20336;-80
2024/04/16 09:31:02;;;;;;;3.53;1.00;;;9.80;99.90;;;;;;5312542;26;20930;-80
2024/04/16 09:33:30;;;;;;;3.97;1.10;;;10.00;99.90;;;;;;5344553;26;20345;-81
2024/04/16 09:35:56;;;;;;;5.13;1.50;;;9.50;99.90;;;;;;5308274;27;20347;-79
2024/04/16 09:38:21;;;;;;;3.70;1.20;;;9.20;99.90;;;;;;5332579;26;20413;-80
2024/04/16 09:40:47;;;;;;;3.43;1.20;;;9.10;99.90;;;;;;5352825;26;20329;-81
2024/04/16 09:43:15;;;;;;;3.70;1.15;;;9.20;99.90;;;;;;5322211;26;20377;-80
2024/04/16 09:45:41;;;;;;;4.70;1.60;;;9.20;99.90;;;;;;5353061;26;20349;-80
2024/04/16 09:48:08;;;;;;;5.22;1.10;;;9.20;99.90;;;;;;5352884;26;20325;-80
2024/04/16 09:50:36;;;;;;;3.85;1.13;;;9.20;99.90;;;;;;5353921;26;20340;-80
2024/04/16 09:53:03;;;;;;;4.45;1.88;;;9.50;99.90;;;;;;5346245;26;20886;-82
2024/04/16 09:55:31;;;;;;;4.47;1.20;;;9.40;99.90;;;;;;5345904;26;20368;-81
2024/04/16 09:57:59;;;;;;;5.50;1.50;;;9.80;99.90;;;;;;5341744;26;20704;-81
2024/04/16 10:00:25;;;;;;;2.92;1.38;;;9.70;99.90;;;;;;5311628;26;20347;-81
2024/04/16 10:02:53;;;;;;;3.72;1.33;;;9.80;99.90;;;;;;5310792;26;20383;-81
2024/04/16 10:05:19;;;;;;;2.58;1.00;;;9.80;99.90;;;;;;5299547;27;20339;-81
2024/04/16 10:07:47;;;;;;;3.47;1.20;;;10.00;99.90;;;;;;5312964;26;20357;-81
2024/04/16 10:10:14;;;;;;;3.83;1.20;;;10.40;99.90;;;;;;5348986;26;20378;-80
2024/04/16 10:12:41;;;;;;;5.90;1.42;;;10.10;99.90;;;;;;5348965;26;20365;-81
2024/04/16 10:15:07;;;;;;;4.60;1.60;;;10.20;99.90;;;;;;5348153;26;20336;-81
2024/04/16 10:17:47;;;;;;;1.70;1.00;;;9.70;99.90;;;;;;5348028;26;20863;-81
2024/04/16 10:20:15;;;;;;;7.33;1.30;;;9.60;99.90;;;;;;5317726;26;20932;-80
2024/04/16 10:22:41;;;;;;;5.50;1.30;;;9.40;99.90;;;;;;5345453;26;20367;-81
2024/04/16 10:25:10;;;;;;;3.53;0.98;;;8.90;99.90;;;;;;5347375;26;20341;-79
2024/04/16 10:27:35;;;;;;;2.95;1.02;;;9.70;99.90;;;;;;5347875;26;20341;-80
2024/04/16 10:30:15;;;;;;;3.03;1.15;;;9.40;99.90;;;;;;5347774;26;20442;-80
2024/04/16 10:32:46;;;;;;;3.67;1.10;;;9.20;99.90;;;;;;5349080;26;20376;-80
2024/04/16 10:35:14;;;;;;;4.30;1.30;;;9.20;99.90;;;;;;5317736;26;20714;-81
2024/04/16 10:37:40;;;;;;;3.90;1.10;;;10.10;99.90;;;;;;5347962;26;20852;-81
2024/04/16 10:40:06;;;;;;;4.63;1.10;;;10.20;99.90;;;;;;5347568;26;20391;-81
2024/04/16 10:42:37;;;;;;;7.00;1.40;;;9.90;99.90;;;;;;5348247;26;20333;-81
2024/04/16 10:45:03;;;;;;;1.30;0.90;;;9.20;99.90;;;;;;5328926;26;20357;-81
2024/04/16 10:47:31;;;;;;;2.67;0.80;;;10.10;99.90;;;;;;5311736;26;20335;-81
2024/04/16 10:49:58;;;;;;;2.65;0.90;;;9.80;99.90;;;;;;5282310;26;20416;-81
2024/04/16 10:52:23;;;;;;;3.50;1.00;;;10.20;99.90;;;;;;5311853;26;20794;-82
2024/04/16 10:54:52;;;;;;;5.13;1.20;;;9.70;99.90;;;;;;5311797;26;20447;-82
2024/04/16 10:57:21;;;;;;;3.17;1.42;;;9.90;99.90;;;;;;5281428;27;20379;-81
2024/04/16 10:59:47;;;;;;;4.03;1.10;;;10.00;99.90;;;;;;5311863;26;20328;-81
2024/04/16 11:02:13;;;;;;;3.75;0.95;;;9.70;99.90;;;;;;5312536;26;20335;-80
2024/04/16 11:04:39;;;;;;;3.17;1.00;;;9.40;99.90;;;;;;5312125;26;20362;-80
2024/04/16 11:07:05;;;;;;;1.90;1.10;;;9.60;99.90;;;;;;5281378;26;20367;-80
2024/04/16 11:09:31;;;;;;;3.58;1.30;;;9.80;99.90;;;;;;5311093;26;20429;-80
2024/04/16 11:11:57;;;;;;;6.32;1.23;;;9.40;99.90;;;;;;5312110;26;20340;-81
2024/04/16 11:14:24;;;;;;;3.35;1.00;;;9.70;99.90;;;;;;5281049;27;21087;-80
2024/04/16 11:16:49;;;;;;;3.50;1.10;;;10.10;99.90;;;;;;5310964;26;20339;-81
2024/04/16 11:19:16;;;;;;;4.53;1.50;;;10.20;99.90;;;;;;5312214;26;20372;-80
2024/04/16 11:21:42;;;;;;;5.00;1.30;;;10.20;99.90;;;;;;5313926;26;20343;-83
2024/04/16 11:24:09;;;;;;;4.43;1.23;;;10.50;99.90;;;;;;5311439;26;20383;-81
2024/04/16 11:26:37;;;;;;;3.20;0.90;;;10.90;99.90;;;;;;5293490;26;20329;-81
2024/04/16 11:29:03;;;;;;;4.05;1.00;;;10.70;99.90;;;;;;5346385;26;20329;-81
2024/04/16 11:31:29;;;;;;;5.63;1.27;;;10.50;99.90;;;;;;5316138;26;20517;-81
2024/04/16 11:33:55;;;;;;;4.22;1.50;;;10.80;99.90;;;;;;5346795;26;20932;-80
2024/04/16 11:36:21;;;;;;;4.38;1.00;;;11.70;99.90;;;;;;5333431;26;20353;-81
2024/04/16 11:38:47;;;;;;;4.35;1.60;;;11.70;99.90;;;;;;5349688;26;20689;-80
2024/04/16 11:41:15;;;;;;;2.75;0.90;;;11.70;99.90;;;;;;5348797;26;20337;-80
2024/04/16 11:43:41;;;;;;;5.22;1.00;;;11.50;99.90;;;;;;5349426;26;20336;-79
2024/04/16 11:46:08;;;;;;;3.00;0.83;;;12.60;99.90;;;;;;5317578;26;20335;-80
2024/04/16 11:48:35;;;;;;;2.95;1.00;;;12.00;1.00;;;;;;5316355;26;20437;-79
2024/04/16 11:51:01;;;;;;;3.45;0.90;;;12.30;1.00;;;;;;5285020;26;20347;-80
2024/04/16 11:53:27;;;;;;;2.60;1.00;;;12.70;1.00;;;;;;5282787;27;20704;-79
2024/04/16 11:55:52;;;;;;;3.90;1.10;;;13.00;1.00;;;;;;5328959;26;20349;-79
2024/04/16 11:58:18;;;;;;;3.38;1.40;;;12.60;1.00;;;;;;5346805;26;20895;-80
2024/04/16 12:00:43;;;;;;;1.90;0.90;;;11.80;1.00;;;;;;5347752;26;20325;-80
2024/04/16 12:03:09;;;;;;;2.57;1.00;;;12.00;1.00;;;;;;5346473;26;20379;-79
2024/04/16 12:05:35;;;;;;;4.70;1.10;;;11.60;1.00;;;;;;5315349;26;20329;-78
2024/04/16 12:08:01;;;;;;;2.47;1.17;;;11.20;1.00;;;;;;5345419;26;20412;-80
2024/04/16 12:10:30;;;;;;;2.25;0.80;;;11.10;15.90;;;;;;5346341;26;20856;-79
2024/04/16 12:12:56;;;;;;;2.38;1.60;;;11.90;1.00;;;;;;5316042;26;20344;-79
2024/04/16 12:15:23;;;;;;;3.63;1.20;;;11.50;1.00;;;;;;5345756;26;20647;-80
2024/04/16 12:17:48;;;;;;;3.00;1.20;;;11.90;1.00;;;;;;5331116;26;20339;-80
2024/04/16 12:20:14;;;;;;;2.87;0.93;;;12.00;1.00;;;;;;5336010;26;20341;-80
2024/04/16 12:22:39;;;;;;;4.63;0.70;;;11.90;1.00;;;;;;5335990;26;20421;-82
2024/04/16 12:25:05;;;;;;;1.98;0.80;;;12.50;1.00;;;;;;5316235;26;20457;-80
2024/04/16 12:27:31;;;;;;;1.77;0.80;;;12.30;1.00;;;;;;5345051;26;20369;-80
2024/04/16 12:29:57;;;;;;;3.50;1.00;;;11.90;1.00;;;;;;5312146;26;20382;-80
2024/04/16 12:32:23;;;;;;;2.28;0.80;;;11.80;1.00;;;;;;5348167;26;20345;-79
2024/04/16 12:34:48;;;;;;;2.95;0.80;;;11.40;1.00;;;;;;5345991;26;20341;-80
2024/04/16 12:37:14;;;;;;;1.70;0.82;;;11.20;1.00;;;;;;5339399;26;20331;-80
2024/04/16 12:39:39;;;;;;;5.50;1.20;;;11.00;1.00;;;;;;5293982;26;20333;-80
2024/04/16 12:42:05;;;;;;;2.80;0.87;;;11.00;1.00;;;;;;5346124;26;20321;-81
2024/04/16 12:44:30;;;;;;;2.90;0.93;;;10.90;1.00;;;;;;5345785;26;20859;-81
2024/04/16 12:46:56;;;;;;;2.25;1.10;;;10.80;1.00;;;;;;5345607;26;20329;-78
2024/04/16 12:49:23;;;;;;;3.20;0.90;;;11.00;1.00;;;;;;5310127;26;20335;-82
2024/04/16 12:51:49;;;;;;;2.95;1.00;;;11.20;1.00;;;;;;5339780;26;20328;-80